Time;durP1;ratioP1;P1;durP2;ratioP2;P2;SDS_P1;SDS_P2;PMS_P1;PMS_P2;Temp;Humidity;BMP_temperature;BMP_pressure;BME280_temperature;BME280_humidity;BME280_pressure;Samples;Min_cycle;Max_cycle;Signal;HPM_P1;HPM_P2
2021/03/21 00:01:33;;;;;;;6.43;5.83;;;;;;;;;;5066326;28;20639;-59
2021/03/21 00:03:59;;;;;;;7.60;6.30;;;;;;;;;;5051735;28;20182;-59
2021/03/21 00:06:25;;;;;;;8.33;7.20;;;;;;;;;;5066879;28;20177;-60
2021/03/21 00:08:51;;;;;;;8.90;7.93;;;;;;;;;;5052683;28;20173;-59
2021/03/21 00:11:17;;;;;;;8.13;7.33;;;;;;;;;;5062027;28;20648;-58
2021/03/21 00:13:43;;;;;;;9.67;8.77;;;;;;;;;;5037516;28;20196;-59
2021/03/21 00:16:09;;;;;;;8.87;7.47;;;;;;;;;;5041785;28;20694;-59
2021/03/21 00:18:37;;;;;;;9.10;8.20;;;;;;;;;;5049660;28;20188;-61
2021/03/21 00:21:04;;;;;;;9.00;8.10;;;;;;;;;;5052777;28;20208;-58
2021/03/21 00:23:30;;;;;;;9.00;8.10;;;;;;;;;;5061510;28;20233;-58
2021/03/21 00:25:56;;;;;;;11.17;9.67;;;;;;;;;;5055319;28;20259;-58
2021/03/21 00:28:24;;;;;;;10.70;9.63;;;;;;;;;;5039174;28;20177;-58
2021/03/21 00:30:50;;;;;;;10.80;9.80;;;;;;;;;;5057553;28;20548;-58
2021/03/21 00:33:17;;;;;;;11.20;10.10;;;;;;;;;;5046710;28;20208;-59
2021/03/21 00:35:43;;;;;;;11.23;10.10;;;;;;;;;;5065787;28;20596;-59
2021/03/21 00:38:17;;;;;;;12.90;10.60;;;;;;;;;;5054976;28;20595;-59
2021/03/21 00:40:43;;;;;;;11.90;10.03;;;;;;;;;;5040674;28;20211;-59
2021/03/21 00:43:09;;;;;;;13.03;11.67;;;;;;;;;;5051100;28;20276;-60
2021/03/21 00:45:35;;;;;;;12.83;11.53;;;;;;;;;;5065234;28;20187;-59
2021/03/21 00:48:01;;;;;;;12.43;10.93;;;;;;;;;;5063310;28;20199;-59
2021/03/21 00:50:34;;;;;;;12.53;11.30;;;;;;;;;;5065563;28;20205;-58
2021/03/21 00:53:00;;;;;;;12.87;11.57;;;;;;;;;;5053159;28;20181;-59
2021/03/21 00:55:27;;;;;;;13.63;12.23;;;;;;;;;;5051616;28;20188;-58
2021/03/21 00:57:53;;;;;;;13.47;11.83;;;;;;;;;;5060717;28;20276;-59
2021/03/21 01:00:45;;;;;;;15.57;12.60;;;;;;;;;;5058081;28;20204;-59
2021/03/21 01:03:11;;;;;;;13.60;12.20;;;;;;;;;;5056128;28;20196;-58
2021/03/21 01:05:39;;;;;;;13.60;12.20;;;;;;;;;;5050876;28;20284;-58
2021/03/21 01:08:06;;;;;;;14.67;13.17;;;;;;;;;;5055087;28;20496;-58
2021/03/21 01:10:34;;;;;;;14.20;12.80;;;;;;;;;;5051955;28;20541;-58
2021/03/21 01:13:01;;;;;;;13.50;11.83;;;;;;;;;;5053655;28;20185;-59
2021/03/21 01:15:29;;;;;;;15.50;13.23;;;;;;;;;;5048628;28;20176;-58
2021/03/21 01:17:55;;;;;;;14.63;13.10;;;;;;;;;;5055246;28;20173;-59
2021/03/21 01:20:24;;;;;;;14.17;12.53;;;;;;;;;;5057031;28;20200;-59
2021/03/21 01:22:50;;;;;;;15.40;13.80;;;;;;;;;;5056218;28;20172;-58
2021/03/21 01:25:19;;;;;;;14.20;12.70;;;;;;;;;;5056287;28;20272;-59
2021/03/21 01:27:45;;;;;;;13.57;12.23;;;;;;;;;;5057035;28;20169;-59
2021/03/21 01:30:11;;;;;;;14.73;13.10;;;;;;;;;;5042051;28;20627;-58
2021/03/21 01:32:37;;;;;;;14.60;13.00;;;;;;;;;;5038281;28;20309;-59
2021/03/21 01:35:04;;;;;;;13.40;12.00;;;;;;;;;;5054774;28;20173;-60
2021/03/21 01:37:30;;;;;;;14.57;13.10;;;;;;;;;;5053233;28;20303;-59
2021/03/21 01:39:56;;;;;;;14.37;12.77;;;;;;;;;;5059693;28;20300;-59
2021/03/21 01:42:22;;;;;;;16.27;12.57;;;;;;;;;;5032720;28;20182;-59
2021/03/21 01:44:48;;;;;;;13.37;11.90;;;;;;;;;;5027492;28;20246;-60
2021/03/21 01:47:18;;;;;;;13.43;12.03;;;;;;;;;;5057965;28;20173;-59
2021/03/21 01:49:46;;;;;;;13.70;12.30;;;;;;;;;;5055669;28;20201;-59
2021/03/21 01:52:22;;;;;;;14.33;12.83;;;;;;;;;;5056512;28;20232;-58
2021/03/21 01:54:48;;;;;;;13.27;11.83;;;;;;;;;;5057369;28;20177;-59
2021/03/21 01:57:14;;;;;;;12.53;11.30;;;;;;;;;;5054995;28;20208;-59
2021/03/21 01:59:40;;;;;;;13.70;12.20;;;;;;;;;;5058971;28;20183;-59
2021/03/21 02:02:10;;;;;;;14.23;11.87;;;;;;;;;;5056517;28;20180;-59
2021/03/21 02:04:36;;;;;;;13.53;12.13;;;;;;;;;;5058208;28;20180;-61
2021/03/21 02:07:05;;;;;;;12.63;11.33;;;;;;;;;;5053435;28;20173;-59
2021/03/21 02:09:40;;;;;;;12.27;10.97;;;;;;;;;;5050028;28;20181;-58
2021/03/21 02:12:25;;;;;;;13.53;12.13;;;;;;;;;;5028439;28;20176;-59
2021/03/21 02:14:57;;;;;;;11.70;10.57;;;;;;;;;;5051480;28;20181;-58
2021/03/21 02:17:27;;;;;;;14.88;13.45;;;;;;;;;;5048027;28;20431;-59
2021/03/21 02:20:11;;;;;;;14.00;12.53;;;;;;;;;;5055915;28;20199;-58
2021/03/21 02:22:46;;;;;;;13.10;11.73;;;;;;;;;;5055813;28;20601;-59
2021/03/21 02:25:12;;;;;;;13.80;12.40;;;;;;;;;;5028897;28;20161;-58
2021/03/21 02:27:57;;;;;;;11.67;10.47;;;;;;;;;;5031491;28;20215;-58
2021/03/21 02:30:28;;;;;;;12.33;11.10;;;;;;;;;;5047884;28;20261;-59
2021/03/21 02:33:07;;;;;;;12.37;11.07;;;;;;;;;;5047947;28;20268;-58
2021/03/21 02:35:40;;;;;;;11.67;10.47;;;;;;;;;;5052439;28;20267;-59
2021/03/21 02:38:18;;;;;;;11.73;10.50;;;;;;;;;;5050091;28;20239;-59
2021/03/21 02:40:48;;;;;;;12.20;10.73;;;;;;;;;;5059972;28;20555;-59
2021/03/21 02:43:21;;;;;;;12.73;11.43;;;;;;;;;;5031098;28;20185;-60
2021/03/21 02:45:50;;;;;;;11.67;10.47;;;;;;;;;;5053971;28;20661;-59
2021/03/21 02:48:21;;;;;;;11.30;10.10;;;;;;;;;;5051702;28;20238;-59
2021/03/21 02:50:55;;;;;;;12.33;10.80;;;;;;;;;;5058994;28;20565;-59
2021/03/21 02:53:28;;;;;;;12.00;9.87;;;;;;;;;;5055862;28;20181;-59
2021/03/21 02:55:56;;;;;;;10.47;9.40;;;;;;;;;;5062100;28;20185;-60
2021/03/21 02:58:25;;;;;;;11.40;9.80;;;;;;;;;;5064851;28;20177;-58
2021/03/21 03:00:54;;;;;;;11.97;10.40;;;;;;;;;;5060550;28;20677;-58
2021/03/21 03:03:21;;;;;;;11.23;9.67;;;;;;;;;;5041097;28;20184;-61
2021/03/21 03:05:56;;;;;;;11.00;9.80;;;;;;;;;;5058478;28;20181;-59
2021/03/21 03:08:36;;;;;;;11.20;9.90;;;;;;;;;;5055061;28;20179;-59
2021/03/21 03:11:08;;;;;;;10.47;9.37;;;;;;;;;;5062426;28;20284;-58
2021/03/21 03:13:41;;;;;;;10.13;9.03;;;;;;;;;;5058006;28;20242;-61
2021/03/21 03:16:26;;;;;;;10.33;8.70;;;;;;;;;;5061534;28;20226;-59
2021/03/21 03:19:03;;;;;;;12.63;9.17;;;;;;;;;;5048237;28;20709;-59
2021/03/21 03:21:32;;;;;;;11.67;9.53;;;;;;;;;;5043896;28;20204;-60
2021/03/21 03:24:10;;;;;;;9.50;8.50;;;;;;;;;;5037093;28;20640;-58
2021/03/21 03:26:46;;;;;;;10.13;9.13;;;;;;;;;;5060071;28;20195;-62
2021/03/21 03:29:15;;;;;;;9.67;8.57;;;;;;;;;;5054166;28;20181;-58
2021/03/21 03:31:47;;;;;;;9.00;8.00;;;;;;;;;;5059853;28;20256;-59
2021/03/21 03:34:13;;;;;;;9.23;8.20;;;;;;;;;;5055033;28;20188;-58
2021/03/21 03:36:39;;;;;;;9.13;8.23;;;;;;;;;;5059557;28;20185;-58
2021/03/21 03:39:05;;;;;;;9.97;8.37;;;;;;;;;;5043122;28;20811;-58
2021/03/21 03:41:35;;;;;;;10.03;8.57;;;;;;;;;;5056254;28;20596;-58
2021/03/21 03:44:16;;;;;;;9.13;7.83;;;;;;;;;;5048358;28;20231;-58
2021/03/21 03:46:42;;;;;;;7.37;6.67;;;;;;;;;;5054952;28;20173;-59
2021/03/21 03:49:14;;;;;;;8.10;7.30;;;;;;;;;;5054233;28;20570;-59
2021/03/21 03:51:53;;;;;;;8.43;7.53;;;;;;;;;;5057467;28;20185;-59
2021/03/21 03:54:29;;;;;;;9.10;8.10;;;;;;;;;;5061314;28;20184;-58
2021/03/21 03:57:09;;;;;;;8.37;7.33;;;;;;;;;;5039576;28;20260;-59
2021/03/21 03:59:47;;;;;;;9.03;7.80;;;;;;;;;;5054309;28;20184;-61
2021/03/21 04:02:20;;;;;;;8.33;7.23;;;;;;;;;;5057272;28;20226;-58
2021/03/21 04:05:03;;;;;;;8.13;7.20;;;;;;;;;;5048514;28;20253;-58
2021/03/21 04:07:40;;;;;;;7.57;6.73;;;;;;;;;;5056229;28;20169;-59
2021/03/21 04:10:10;;;;;;;8.53;6.80;;;;;;;;;;5066085;28;20521;-58
2021/03/21 04:12:44;;;;;;;7.63;6.83;;;;;;;;;;5056034;28;20197;-58
2021/03/21 04:15:14;;;;;;;8.27;6.90;;;;;;;;;;5040377;28;20267;-59
2021/03/21 04:17:44;;;;;;;7.67;6.20;;;;;;;;;;5061129;28;20279;-58
2021/03/21 04:20:18;;;;;;;8.83;6.97;;;;;;;;;;5042910;28;20671;-58
2021/03/21 04:22:47;;;;;;;7.83;6.23;;;;;;;;;;5058597;28;20493;-58
2021/03/21 04:25:16;;;;;;;6.97;6.23;;;;;;;;;;5040343;28;20187;-59
2021/03/21 04:27:51;;;;;;;6.40;5.77;;;;;;;;;;5036118;28;20188;-58
2021/03/21 04:30:19;;;;;;;7.00;6.03;;;;;;;;;;5046160;28;20525;-58
2021/03/21 04:32:50;;;;;;;7.10;6.07;;;;;;;;;;5050795;28;20189;-59
2021/03/21 04:35:21;;;;;;;7.03;6.07;;;;;;;;;;5048173;28;20229;-59
2021/03/21 04:37:50;;;;;;;7.63;6.00;;;;;;;;;;5062352;28;20220;-59
2021/03/21 04:40:17;;;;;;;7.03;6.17;;;;;;;;;;5052690;28;20197;-59
2021/03/21 04:42:47;;;;;;;6.63;5.93;;;;;;;;;;5049548;28;20578;-58
2021/03/21 04:45:15;;;;;;;6.47;5.77;;;;;;;;;;5054601;28;20176;-58
2021/03/21 04:47:51;;;;;;;8.10;6.40;;;;;;;;;;5037724;28;20216;-58
2021/03/21 04:50:18;;;;;;;7.17;6.00;;;;;;;;;;5056667;28;20266;-58
2021/03/21 04:52:52;;;;;;;6.07;5.23;;;;;;;;;;5035277;28;20214;-58
2021/03/21 04:55:21;;;;;;;7.30;6.40;;;;;;;;;;5055874;28;20185;-58
2021/03/21 04:57:48;;;;;;;7.93;6.50;;;;;;;;;;5057547;28;20181;-58
2021/03/21 05:00:21;;;;;;;6.50;5.30;;;;;;;;;;5054943;28;20201;-58
2021/03/21 05:02:49;;;;;;;7.30;6.60;;;;;;;;;;5054594;28;20263;-58
2021/03/21 05:05:21;;;;;;;6.60;5.90;;;;;;;;;;5059430;28;20534;-58
2021/03/21 05:07:50;;;;;;;6.60;5.90;;;;;;;;;;5058148;28;20180;-59
2021/03/21 05:10:20;;;;;;;8.17;6.37;;;;;;;;;;5056196;28;20271;-59
2021/03/21 05:12:52;;;;;;;7.50;5.50;;;;;;;;;;5056580;28;20198;-59
2021/03/21 05:15:19;;;;;;;6.50;5.67;;;;;;;;;;5056002;28;20647;-58
2021/03/21 05:17:54;;;;;;;7.33;5.93;;;;;;;;;;5028079;28;20181;-58
2021/03/21 05:20:26;;;;;;;7.47;6.43;;;;;;;;;;5061923;28;20214;-59
2021/03/21 05:23:11;;;;;;;7.33;6.10;;;;;;;;;;5046222;28;20173;-58
2021/03/21 05:25:42;;;;;;;8.10;6.60;;;;;;;;;;5056639;28;20251;-58
2021/03/21 05:28:13;;;;;;;9.13;6.67;;;;;;;;;;5051451;28;20530;-58
2021/03/21 05:30:39;;;;;;;9.27;7.30;;;;;;;;;;5040870;28;20188;-59
2021/03/21 05:33:06;;;;;;;6.57;5.73;;;;;;;;;;5034903;28;20636;-58
2021/03/21 05:35:34;;;;;;;8.37;6.60;;;;;;;;;;5056122;28;20185;-58
2021/03/21 05:38:19;;;;;;;9.53;6.87;;;;;;;;;;5035253;28;20221;-58
2021/03/21 05:41:05;;;;;;;8.60;7.23;;;;;;;;;;5054382;28;20291;-58
2021/03/21 05:43:49;;;;;;;7.63;6.83;;;;;;;;;;5035534;28;20216;-59
2021/03/21 05:46:30;;;;;;;7.83;6.10;;;;;;;;;;5033618;28;20181;-58
2021/03/21 05:49:04;;;;;;;8.67;6.33;;;;;;;;;;5033983;28;20191;-60
2021/03/21 05:51:43;;;;;;;8.93;7.33;;;;;;;;;;5050897;28;20268;-58
2021/03/21 05:54:27;;;;;;;9.60;7.30;;;;;;;;;;5050813;28;20543;-57
2021/03/21 05:57:11;;;;;;;7.80;6.67;;;;;;;;;;5049825;28;20173;-59
2021/03/21 06:00:00;;;;;;;8.80;6.77;;;;;;;;;;5056913;28;20188;-58
2021/03/21 06:02:42;;;;;;;8.00;7.20;;;;;;;;;;5023135;28;20304;-59
2021/03/21 06:05:26;;;;;;;8.77;7.50;;;;;;;;;;5043991;28;20868;-58
2021/03/21 06:08:10;;;;;;;10.77;7.67;;;;;;;;;;5054037;28;20184;-59
2021/03/21 06:10:55;;;;;;;8.93;7.30;;;;;;;;;;5042786;28;20526;-58
2021/03/21 06:13:27;;;;;;;8.43;7.33;;;;;;;;;;5050195;28;20490;-59
2021/03/21 06:16:12;;;;;;;8.80;7.20;;;;;;;;;;5058445;28;20246;-58
2021/03/21 06:18:44;;;;;;;9.10;7.47;;;;;;;;;;5043779;28;20636;-61
2021/03/21 06:21:10;;;;;;;9.53;8.17;;;;;;;;;;5035273;28;21754;-59
2021/03/21 06:23:49;;;;;;;9.10;7.10;;;;;;;;;;5055826;28;20181;-61
2021/03/21 06:26:16;;;;;;;9.57;7.83;;;;;;;;;;5054751;28;20589;-59
2021/03/21 06:29:05;;;;;;;9.57;7.50;;;;;;;;;;5057261;28;20177;-58
2021/03/21 06:31:34;;;;;;;8.23;7.33;;;;;;;;;;5019284;28;20651;-59
2021/03/21 06:34:12;;;;;;;8.80;7.77;;;;;;;;;;5046878;28;20264;-58
2021/03/21 06:36:46;;;;;;;8.60;7.40;;;;;;;;;;5042207;28;20199;-61
2021/03/21 06:39:28;;;;;;;9.30;7.90;;;;;;;;;;5059134;28;20199;-59
2021/03/21 06:41:54;;;;;;;9.13;7.67;;;;;;;;;;5051738;28;20200;-58
2021/03/21 06:44:20;;;;;;;9.50;8.13;;;;;;;;;;5045492;28;20185;-59
2021/03/21 06:46:58;;;;;;;8.63;7.50;;;;;;;;;;5057879;28;20569;-58
2021/03/21 06:49:33;;;;;;;8.37;7.40;;;;;;;;;;5028007;28;20204;-59
2021/03/21 06:52:11;;;;;;;9.50;7.73;;;;;;;;;;5049594;28;20519;-58
2021/03/21 06:55:16;;;;;;;8.60;6.87;;;;;;;;;;5029205;28;20183;-60
2021/03/21 06:57:54;;;;;;;8.03;7.23;;;;;;;;;;4951146;28;20218;-60
2021/03/21 07:00:29;;;;;;;8.40;6.63;;;;;;;;;;4955714;28;20291;-59
2021/03/21 07:02:55;;;;;;;7.70;6.90;;;;;;;;;;5018111;28;20187;-59
2021/03/21 07:05:46;;;;;;;8.80;7.07;;;;;;;;;;5043446;28;20185;-59
2021/03/21 07:08:21;;;;;;;8.50;6.60;;;;;;;;;;5014975;28;20255;-61
2021/03/21 07:10:57;;;;;;;7.70;6.90;;;;;;;;;;5036658;28;20204;-59
2021/03/21 07:13:41;;;;;;;10.97;7.80;;;;;;;;;;5032833;28;20258;-58
2021/03/21 07:16:32;;;;;;;9.97;8.43;;;;;;;;;;5031921;28;20228;-59
2021/03/21 07:19:10;;;;;;;9.33;7.33;;;;;;;;;;5032393;28;20532;-58
2021/03/21 07:21:51;;;;;;;8.87;6.90;;;;;;;;;;5029524;28;20201;-58
2021/03/21 07:24:18;;;;;;;6.70;6.03;;;;;;;;;;5034404;28;20192;-59
2021/03/21 07:27:03;;;;;;;9.67;6.70;;;;;;;;;;5013433;28;20177;-59
2021/03/21 07:29:44;;;;;;;8.17;6.23;;;;;;;;;;5035154;28;20208;-60
2021/03/21 07:32:29;;;;;;;8.50;6.33;;;;;;;;;;5048548;28;20190;-58
2021/03/21 07:34:55;;;;;;;7.53;6.30;;;;;;;;;;5021632;28;20189;-58
2021/03/21 07:37:34;;;;;;;6.83;5.80;;;;;;;;;;5046379;28;20255;-59
2021/03/21 07:40:12;;;;;;;20.37;6.20;;;;;;;;;;5041123;28;20195;-58
2021/03/21 07:42:57;;;;;;;6.70;5.43;;;;;;;;;;5045809;28;20173;-58
2021/03/21 07:45:27;;;;;;;7.80;7.00;;;;;;;;;;5047245;28;20418;-60
2021/03/21 07:48:02;;;;;;;6.67;5.87;;;;;;;;;;5048888;28;20186;-59
2021/03/21 07:50:28;;;;;;;6.07;5.40;;;;;;;;;;5062103;28;20596;-58
2021/03/21 07:53:01;;;;;;;5.37;4.87;;;;;;;;;;5047825;28;20223;-59
2021/03/21 07:55:27;;;;;;;6.90;5.30;;;;;;;;;;5044125;28;20190;-58
2021/03/21 07:58:06;;;;;;;8.87;5.43;;;;;;;;;;5021913;28;20281;-59
2021/03/21 08:00:32;;;;;;;5.33;4.37;;;;;;;;;;5019576;28;20189;-59
2021/03/21 08:03:17;;;;;;;5.30;4.33;;;;;;;;;;5042591;28;20169;-59
2021/03/21 08:05:43;;;;;;;6.80;4.60;;;;;;;;;;5050099;28;20174;-58
2021/03/21 08:08:14;;;;;;;6.07;4.53;;;;;;;;;;5026051;28;20254;-58
2021/03/21 08:10:42;;;;;;;4.90;4.40;;;;;;;;;;5025803;28;20296;-59
2021/03/21 08:13:15;;;;;;;6.97;4.57;;;;;;;;;;5049192;28;20615;-58
2021/03/21 08:15:41;;;;;;;6.57;4.30;;;;;;;;;;5054048;28;20577;-59
2021/03/21 08:18:30;;;;;;;4.93;4.07;;;;;;;;;;5034634;28;20204;-59
2021/03/21 08:21:07;;;;;;;4.57;3.70;;;;;;;;;;5041931;28;20236;-59
2021/03/21 08:23:44;;;;;;;7.03;3.90;;;;;;;;;;5045015;28;20173;-59
2021/03/21 08:26:16;;;;;;;5.40;3.50;;;;;;;;;;5022914;28;20186;-60
2021/03/21 08:28:58;;;;;;;4.37;3.60;;;;;;;;;;5028395;28;20284;-59
2021/03/21 08:31:30;;;;;;;5.03;3.30;;;;;;;;;;5047786;28;20192;-59
2021/03/21 08:34:16;;;;;;;4.30;3.20;;;;;;;;;;5045090;28;20293;-59
2021/03/21 08:36:42;;;;;;;5.20;2.87;;;;;;;;;;5027469;28;20188;-60
2021/03/21 08:39:18;;;;;;;3.47;2.23;;;;;;;;;;5044021;28;20209;-59
2021/03/21 08:41:47;;;;;;;2.80;2.30;;;;;;;;;;5041811;28;20196;-58
2021/03/21 08:44:28;;;;;;;4.07;2.60;;;;;;;;;;5041383;28;20186;-58
2021/03/21 08:46:54;;;;;;;2.83;2.30;;;;;;;;;;5041527;28;20220;-58
2021/03/21 08:49:24;;;;;;;4.93;2.73;;;;;;;;;;5058057;28;20299;-60
2021/03/21 08:51:50;;;;;;;6.27;3.10;;;;;;;;;;5039894;28;20197;-59
2021/03/21 08:54:26;;;;;;;11.37;4.00;;;;;;;;;;5046376;28;20178;-58
2021/03/21 08:57:00;;;;;;;6.77;3.93;;;;;;;;;;5040568;28;20184;-57
2021/03/21 08:59:29;;;;;;;4.77;3.03;;;;;;;;;;5055226;28;20184;-58
2021/03/21 09:02:11;;;;;;;5.67;2.67;;;;;;;;;;5046789;28;20193;-57
2021/03/21 09:04:38;;;;;;;5.33;2.70;;;;;;;;;;5051193;28;20611;-58
2021/03/21 09:07:24;;;;;;;8.40;3.20;;;;;;;;;;5050363;28;20168;-58
2021/03/21 09:10:09;;;;;;;7.10;2.70;;;;;;;;;;5038783;28;20169;-59
2021/03/21 09:12:36;;;;;;;9.00;2.77;;;;;;;;;;5050149;28;20173;-58
2021/03/21 09:15:20;;;;;;;11.40;2.60;;;;;;;;;;5029820;28;20177;-59
2021/03/21 09:18:05;;;;;;;13.83;2.70;;;;;;;;;;5034828;28;20231;-58
2021/03/21 09:20:32;;;;;;;9.33;2.97;;;;;;;;;;5049462;28;20581;-59
2021/03/21 09:22:58;;;;;;;10.73;2.37;;;;;;;;;;5037094;28;20214;-59
2021/03/21 09:25:26;;;;;;;6.57;2.00;;;;;;;;;;5041703;28;20191;-59
2021/03/21 09:27:54;;;;;;;8.23;2.53;;;;;;;;;;5011611;28;20182;-59
2021/03/21 09:30:20;;;;;;;7.50;3.37;;;;;;;;;;5033867;28;20677;-58
2021/03/21 09:32:50;;;;;;;9.93;2.73;;;;;;;;;;5046430;28;20185;-59
2021/03/21 09:35:19;;;;;;;4.97;2.10;;;;;;;;;;5043046;28;20234;-59
2021/03/21 09:37:46;;;;;;;5.87;2.10;;;;;;;;;;5017626;28;20222;-58
2021/03/21 09:40:22;;;;;;;5.53;2.17;;;;;;;;;;5047109;28;20620;-59
2021/03/21 09:42:48;;;;;;;9.37;2.47;;;;;;;;;;5026172;28;20180;-59
2021/03/21 09:45:15;;;;;;;9.37;2.63;;;;;;;;;;5049625;28;20188;-58
2021/03/21 09:47:41;;;;;;;9.07;3.17;;;;;;;;;;5048807;28;20177;-60
2021/03/21 09:50:16;;;;;;;7.23;2.40;;;;;;;;;;5043195;28;20274;-59
2021/03/21 09:52:53;;;;;;;9.77;2.90;;;;;;;;;;5041322;28;20488;-60
2021/03/21 09:55:22;;;;;;;5.40;1.77;;;;;;;;;;5042787;28;20215;-60
2021/03/21 09:58:14;;;;;;;7.00;2.37;;;;;;;;;;5060367;28;20165;-62
2021/03/21 10:00:42;;;;;;;9.07;2.23;;;;;;;;;;5047861;28;20200;-60
2021/03/21 10:03:12;;;;;;;9.70;2.50;;;;;;;;;;5038807;28;20580;-61
2021/03/21 10:05:47;;;;;;;7.13;2.83;;;;;;;;;;5055142;28;20177;-60
2021/03/21 10:08:18;;;;;;;7.30;2.93;;;;;;;;;;5034552;28;20644;-62
2021/03/21 10:11:04;;;;;;;7.17;2.87;;;;;;;;;;5020346;28;20611;-60
2021/03/21 10:13:35;;;;;;;7.07;2.70;;;;;;;;;;5050949;28;20582;-59
2021/03/21 10:16:17;;;;;;;8.07;2.93;;;;;;;;;;5056206;28;20689;-59
2021/03/21 10:18:43;;;;;;;6.07;2.20;;;;;;;;;;5042249;28;20188;-60
2021/03/21 10:21:12;;;;;;;12.70;3.20;;;;;;;;;;5055380;28;20255;-59
2021/03/21 10:23:51;;;;;;;9.87;2.30;;;;;;;;;;5043557;28;20208;-60
2021/03/21 10:26:18;;;;;;;10.73;3.30;;;;;;;;;;5044589;28;20196;-58
2021/03/21 10:28:48;;;;;;;12.47;3.10;;;;;;;;;;5055217;28;20264;-59
2021/03/21 10:31:23;;;;;;;9.17;2.57;;;;;;;;;;5057117;28;20177;-60
2021/03/21 10:34:12;;;;;;;9.63;3.03;;;;;;;;;;5052569;28;20266;-60
2021/03/21 10:36:41;;;;;;;5.80;2.80;;;;;;;;;;5042284;28;20204;-63
2021/03/21 10:39:10;;;;;;;11.63;3.37;;;;;;;;;;5054877;28;20256;-59
2021/03/21 10:41:56;;;;;;;15.30;4.43;;;;;;;;;;5061278;28;20197;-60
2021/03/21 10:44:43;;;;;;;11.73;3.90;;;;;;;;;;5057090;28;20172;-60
2021/03/21 10:47:12;;;;;;;9.30;2.97;;;;;;;;;;5050892;28;20638;-60
2021/03/21 10:49:49;;;;;;;10.33;2.77;;;;;;;;;;5056034;28;20223;-60
2021/03/21 10:52:22;;;;;;;13.80;3.90;;;;;;;;;;5035584;28;20181;-60
2021/03/21 10:54:48;;;;;;;8.20;3.30;;;;;;;;;;5034795;28;20355;-63
2021/03/21 10:57:25;;;;;;;14.17;3.87;;;;;;;;;;5032390;28;20188;-60
2021/03/21 11:00:09;;;;;;;7.67;3.00;;;;;;;;;;5057317;28;20176;-60
2021/03/21 11:02:36;;;;;;;5.50;2.67;;;;;;;;;;5052176;28;20181;-60
2021/03/21 11:05:04;;;;;;;12.00;3.97;;;;;;;;;;5059283;28;20260;-60
2021/03/21 11:07:30;;;;;;;13.80;4.37;;;;;;;;;;5050451;28;20185;-60
2021/03/21 11:09:56;;;;;;;11.30;2.97;;;;;;;;;;5041655;28;20178;-60
2021/03/21 11:12:33;;;;;;;16.10;4.00;;;;;;;;;;5032134;28;20635;-60
2021/03/21 11:15:14;;;;;;;14.03;3.83;;;;;;;;;;5034749;28;20176;-59
2021/03/21 11:17:40;;;;;;;12.40;3.57;;;;;;;;;;5051460;28;20184;-60
2021/03/21 11:20:22;;;;;;;16.27;4.57;;;;;;;;;;5050836;28;20472;-60
2021/03/21 11:22:48;;;;;;;13.27;4.30;;;;;;;;;;5045359;28;20165;-60
2021/03/21 11:25:15;;;;;;;15.00;4.10;;;;;;;;;;5047184;28;21023;-62
2021/03/21 11:27:47;;;;;;;10.10;4.47;;;;;;;;;;5053665;28;20276;-61
2021/03/21 11:30:16;;;;;;;17.00;4.57;;;;;;;;;;5060262;28;20204;-61
2021/03/21 11:32:43;;;;;;;17.80;3.80;;;;;;;;;;5054506;28;20219;-60
2021/03/21 11:35:15;;;;;;;14.57;4.60;;;;;;;;;;5041746;28;20185;-59
2021/03/21 11:37:42;;;;;;;13.53;4.13;;;;;;;;;;5063962;28;20273;-59
2021/03/21 11:40:21;;;;;;;13.67;3.57;;;;;;;;;;5050895;28;20255;-61
2021/03/21 11:42:49;;;;;;;14.07;3.77;;;;;;;;;;5052999;28;20212;-59
2021/03/21 11:45:15;;;;;;;17.23;5.30;;;;;;;;;;5055523;28;20296;-59
2021/03/21 11:47:42;;;;;;;15.10;3.90;;;;;;;;;;5055397;28;20530;-60
2021/03/21 11:50:16;;;;;;;11.27;3.80;;;;;;;;;;5035049;28;20298;-60
2021/03/21 11:52:42;;;;;;;12.50;4.37;;;;;;;;;;5033872;28;20519;-60
2021/03/21 11:55:14;;;;;;;13.03;3.53;;;;;;;;;;5053869;28;20238;-60
2021/03/21 11:57:43;;;;;;;14.23;4.57;;;;;;;;;;5035638;28;20173;-61
2021/03/21 12:00:10;;;;;;;15.63;4.63;;;;;;;;;;5051874;28;20594;-61
2021/03/21 12:02:54;;;;;;;12.57;4.83;;;;;;;;;;5030013;28;20185;-61
2021/03/21 12:05:22;;;;;;;13.00;3.30;;;;;;;;;;5049450;28;20181;-61
2021/03/21 12:07:48;;;;;;;11.60;4.87;;;;;;;;;;5040674;28;20178;-61
2021/03/21 12:10:16;;;;;;;19.13;5.35;;;;;;;;;;5015956;28;20457;-61
2021/03/21 12:12:44;;;;;;;14.33;4.43;;;;;;;;;;5025320;28;20177;-59
2021/03/21 12:15:15;;;;;;;13.67;4.70;;;;;;;;;;5046458;28;20560;-59
2021/03/21 12:17:42;;;;;;;16.77;5.17;;;;;;;;;;5044407;28;20227;-60
2021/03/21 12:20:31;;;;;;;13.53;4.33;;;;;;;;;;5047540;28;20226;-60
2021/03/21 12:22:58;;;;;;;15.83;4.07;;;;;;;;;;5030272;28;20189;-60
2021/03/21 12:25:24;;;;;;;11.73;3.93;;;;;;;;;;5052590;28;20182;-60
2021/03/21 12:27:53;;;;;;;11.23;3.80;;;;;;;;;;5016934;28;20185;-60
2021/03/21 12:30:30;;;;;;;20.50;5.00;;;;;;;;;;5046016;28;20213;-60
2021/03/21 12:33:15;;;;;;;14.43;4.20;;;;;;;;;;5046304;28;20187;-59
2021/03/21 12:35:42;;;;;;;15.77;4.37;;;;;;;;;;5027386;28;20208;-60
2021/03/21 12:38:24;;;;;;;17.13;5.07;;;;;;;;;;5043272;28;20396;-60
2021/03/21 12:40:51;;;;;;;15.90;4.93;;;;;;;;;;5020589;28;20508;-59
2021/03/21 12:43:21;;;;;;;11.57;4.00;;;;;;;;;;5045627;28;20177;-59
2021/03/21 12:46:00;;;;;;;13.93;4.43;;;;;;;;;;5046584;28;20189;-63
2021/03/21 12:48:26;;;;;;;16.40;4.97;;;;;;;;;;5033200;28;20178;-59
2021/03/21 12:50:52;;;;;;;23.42;7.95;;;;;;;;;;5047786;28;20423;-61
2021/03/21 12:53:20;;;;;;;24.90;8.23;;;;;;;;;;5027753;28;20222;-61
2021/03/21 12:55:46;;;;;;;18.23;7.03;;;;;;;;;;5043566;28;20184;-61
2021/03/21 12:58:13;;;;;;;19.87;6.77;;;;;;;;;;5027474;28;20235;-62
2021/03/21 13:00:39;;;;;;;18.37;4.83;;;;;;;;;;5047357;28;20547;-61
2021/03/21 13:03:06;;;;;;;18.57;4.93;;;;;;;;;;5042025;28;20702;-61
2021/03/21 13:05:45;;;;;;;18.23;5.17;;;;;;;;;;5041548;28;20181;-61
2021/03/21 13:08:11;;;;;;;14.37;4.70;;;;;;;;;;5043400;28;20599;-61
2021/03/21 13:10:37;;;;;;;14.57;3.80;;;;;;;;;;5034455;28;20188;-61
2021/03/21 13:13:05;;;;;;;19.60;4.37;;;;;;;;;;5030527;28;20180;-61
2021/03/21 13:15:31;;;;;;;17.37;3.80;;;;;;;;;;5041597;28;20186;-61
2021/03/21 13:17:58;;;;;;;14.23;4.53;;;;;;;;;;5031355;28;20554;-62
2021/03/21 13:20:24;;;;;;;14.73;4.40;;;;;;;;;;5044232;28;20243;-61
2021/03/21 13:22:50;;;;;;;23.13;6.47;;;;;;;;;;5049472;28;20217;-61
2021/03/21 13:25:24;;;;;;;16.70;4.37;;;;;;;;;;5049443;28;20581;-61
2021/03/21 13:27:54;;;;;;;13.20;3.43;;;;;;;;;;5027216;28;20173;-61
2021/03/21 13:30:21;;;;;;;15.13;4.57;;;;;;;;;;5022421;28;20185;-60
2021/03/21 13:32:48;;;;;;;12.47;4.00;;;;;;;;;;5046566;28;20243;-61
2021/03/21 13:35:14;;;;;;;12.03;4.50;;;;;;;;;;5029021;28;20231;-61
2021/03/21 13:37:41;;;;;;;14.03;3.40;;;;;;;;;;5028332;28;20579;-62
2021/03/21 13:40:08;;;;;;;15.73;4.40;;;;;;;;;;5047782;28;20264;-60
2021/03/21 13:42:34;;;;;;;10.23;4.10;;;;;;;;;;5045536;28;20173;-63
2021/03/21 13:45:01;;;;;;;11.37;3.67;;;;;;;;;;5051329;28;20169;-61
2021/03/21 13:47:27;;;;;;;14.83;4.30;;;;;;;;;;5050394;28;20624;-61
2021/03/21 13:49:56;;;;;;;10.93;3.80;;;;;;;;;;5046869;28;20301;-63
2021/03/21 13:52:22;;;;;;;13.57;4.13;;;;;;;;;;5017363;28;20190;-61
2021/03/21 13:54:48;;;;;;;13.57;4.10;;;;;;;;;;5016181;28;20224;-61
2021/03/21 13:57:14;;;;;;;14.65;4.45;;;;;;;;;;5022970;28;20436;-62
2021/03/21 13:59:40;;;;;;;9.93;3.87;;;;;;;;;;5033960;28;20185;-62
2021/03/21 14:02:06;;;;;;;12.70;3.63;;;;;;;;;;5029816;28;20199;-63
2021/03/21 14:04:32;;;;;;;10.87;4.00;;;;;;;;;;5031072;28;20215;-63
2021/03/21 14:06:58;;;;;;;17.00;4.30;;;;;;;;;;5036365;28;20185;-62
2021/03/21 14:09:24;;;;;;;11.57;3.80;;;;;;;;;;5044269;28;20181;-62
2021/03/21 14:11:50;;;;;;;15.77;5.27;;;;;;;;;;5028745;28;20193;-62
2021/03/21 14:14:16;;;;;;;15.43;4.67;;;;;;;;;;5044052;28;20181;-62
2021/03/21 14:16:43;;;;;;;17.02;4.38;;;;;;;;;;5041257;28;20424;-59
2021/03/21 14:19:09;;;;;;;9.27;4.33;;;;;;;;;;5040909;28;20617;-59
2021/03/21 14:21:36;;;;;;;13.73;4.37;;;;;;;;;;5043704;28;20225;-61
2021/03/21 14:24:02;;;;;;;13.20;4.00;;;;;;;;;;5013593;28;20321;-60
2021/03/21 14:26:28;;;;;;;18.97;4.20;;;;;;;;;;5029438;28;20211;-61
2021/03/21 14:28:54;;;;;;;14.37;4.03;;;;;;;;;;5040675;28;20189;-60
2021/03/21 14:31:20;;;;;;;12.80;3.67;;;;;;;;;;5048011;28;20185;-60
2021/03/21 14:33:47;;;;;;;14.87;3.37;;;;;;;;;;5047865;28;20184;-62
2021/03/21 14:36:13;;;;;;;13.27;4.83;;;;;;;;;;5015634;28;20319;-62
2021/03/21 14:38:39;;;;;;;7.10;3.00;;;;;;;;;;5018047;28;20291;-61
2021/03/21 14:41:05;;;;;;;8.33;3.60;;;;;;;;;;5047309;28;20193;-61
2021/03/21 14:43:32;;;;;;;10.50;3.43;;;;;;;;;;5053030;28;20190;-60
2021/03/21 14:45:58;;;;;;;11.00;3.73;;;;;;;;;;5024314;28;20188;-64
2021/03/21 14:48:24;;;;;;;9.60;3.47;;;;;;;;;;5042236;28;20181;-61
2021/03/21 14:50:50;;;;;;;12.13;3.60;;;;;;;;;;5039426;28;20209;-61
2021/03/21 14:53:17;;;;;;;15.77;3.87;;;;;;;;;;5042442;28;20177;-61
2021/03/21 14:55:44;;;;;;;10.70;4.47;;;;;;;;;;5033968;28;20176;-61
2021/03/21 14:58:15;;;;;;;13.43;4.27;;;;;;;;;;5041242;28;20522;-61
2021/03/21 15:00:41;;;;;;;16.03;3.97;;;;;;;;;;5034305;28;20672;-61